Time;durP1;ratioP1;P1;durP2;ratioP2;P2;SDS_P1;SDS_P2;PMS_P1;PMS_P2;Temp;Humidity;BMP_temperature;BMP_pressure;BME280_temperature;BME280_humidity;BME280_pressure;Samples;Min_cycle;Max_cycle;Signal;HPM_P1;HPM_P2
2023/01/06 00:00:11;;;;;;;8.48;2.47;;;;;;;;;;5121323;27;20048;-70
2023/01/06 00:02:38;;;;;;;16.02;3.35;;;;;;;;;;5113306;27;20059;-71
2023/01/06 00:05:04;;;;;;;13.98;3.80;;;;;;;;;;5123055;27;20052;-71
2023/01/06 00:07:31;;;;;;;6.57;2.38;;;;;;;;;;5111705;27;20691;-70
2023/01/06 00:09:57;;;;;;;9.02;2.47;;;;;;;;;;5120397;27;20650;-70
2023/01/06 00:12:25;;;;;;;6.97;3.15;;;;;;;;;;5118958;27;20484;-71
2023/01/06 00:14:52;;;;;;;5.65;2.15;;;;;;;;;;5123538;27;20050;-71
2023/01/06 00:17:18;;;;;;;7.90;2.25;;;;;;;;;;5123160;27;20079;-70
2023/01/06 00:19:44;;;;;;;10.25;2.45;;;;;;;;;;5124672;27;20052;-69
2023/01/06 00:22:10;;;;;;;4.22;1.92;;;;;;;;;;5112237;27;20490;-70
2023/01/06 00:24:37;;;;;;;4.30;1.80;;;;;;;;;;5118998;27;20755;-70
2023/01/06 00:27:04;;;;;;;5.15;1.55;;;;;;;;;;5115368;27;20524;-71
2023/01/06 00:29:30;;;;;;;6.30;1.88;;;;;;;;;;5121553;27;20178;-71
2023/01/06 00:31:59;;;;;;;7.63;2.30;;;;;;;;;;5121798;27;20458;-71
2023/01/06 00:34:26;;;;;;;4.93;1.73;;;;;;;;;;5114535;27;20048;-70
2023/01/06 00:36:52;;;;;;;1.70;1.60;;;;;;;;;;5109558;27;20132;-70
2023/01/06 00:39:19;;;;;;;7.03;2.20;;;;;;;;;;5122116;27;20058;-70
2023/01/06 00:42:04;;;;;;;7.07;2.38;;;;;;;;;;5121322;27;20044;-70
2023/01/06 00:44:31;;;;;;;7.73;2.40;;;;;;;;;;5124379;27;20411;-71
2023/01/06 00:46:57;;;;;;;4.20;2.45;;;;;;;;;;5110962;27;20052;-70
2023/01/06 00:49:24;;;;;;;5.72;2.67;;;;;;;;;;5109920;27;20058;-69
2023/01/06 00:51:51;;;;;;;4.15;2.72;;;;;;;;;;5117221;27;20044;-70
2023/01/06 00:54:17;;;;;;;6.30;3.10;;;;;;;;;;5106649;27;20128;-70
2023/01/06 00:56:47;;;;;;;4.93;3.38;;;;;;;;;;5117125;27;20055;-70
2023/01/06 00:59:14;;;;;;;7.00;4.22;;;;;;;;;;5106032;27;20056;-70
2023/01/06 01:01:41;;;;;;;12.38;4.85;;;;;;;;;;5116263;27;20051;-70
2023/01/06 01:04:08;;;;;;;7.80;4.03;;;;;;;;;;5113048;27;20056;-70
2023/01/06 01:06:35;;;;;;;9.82;4.18;;;;;;;;;;5114290;27;20058;-70
2023/01/06 01:09:02;;;;;;;9.07;4.80;;;;;;;;;;5123126;27;20509;-69
2023/01/06 01:14:15;;;;;;;9.90;4.97;;;;;;;;;;5116495;27;20438;-70
2023/01/06 01:16:42;;;;;;;7.57;4.32;;;;;;;;;;5114995;27;20062;-69
2023/01/06 01:19:08;;;;;;;10.55;4.32;;;;;;;;;;5105782;27;20051;-71
2023/01/06 01:21:35;;;;;;;8.82;4.40;;;;;;;;;;5122599;27;20134;-70
2023/01/06 01:24:01;;;;;;;12.40;4.22;;;;;;;;;;5122336;27;20056;-70
2023/01/06 01:26:27;;;;;;;9.27;4.40;;;;;;;;;;5121900;27;20138;-70
2023/01/06 01:28:54;;;;;;;8.05;3.53;;;;;;;;;;5117588;27;20054;-70
2023/01/06 01:31:20;;;;;;;8.38;3.45;;;;;;;;;;5115640;27;20052;-69
2023/01/06 01:33:47;;;;;;;8.20;3.40;;;;;;;;;;5119300;27;20582;-70
2023/01/06 01:36:14;;;;;;;6.60;3.00;;;;;;;;;;5118502;27;20051;-69
2023/01/06 01:38:41;;;;;;;7.57;3.20;;;;;;;;;;5112106;27;20066;-69
2023/01/06 01:41:12;;;;;;;5.80;2.47;;;;;;;;;;5122136;27;20375;-70
2023/01/06 01:43:58;;;;;;;6.70;2.80;;;;;;;;;;5108780;27;20170;-69
2023/01/06 01:46:26;;;;;;;4.78;2.88;;;;;;;;;;5122952;27;20059;-70
2023/01/06 01:48:55;;;;;;;7.05;2.53;;;;;;;;;;5123405;27;20047;-69
2023/01/06 01:51:26;;;;;;;8.07;3.67;;;;;;;;;;5122636;27;20056;-70
2023/01/06 01:53:54;;;;;;;6.88;2.72;;;;;;;;;;5116911;27;20113;-71
2023/01/06 01:56:23;;;;;;;6.60;2.92;;;;;;;;;;5116142;27;20144;-70
2023/01/06 01:58:54;;;;;;;6.70;2.20;;;;;;;;;;5110893;27;20056;-69
2023/01/06 02:01:21;;;;;;;6.60;2.35;;;;;;;;;;5114540;27;20059;-70
2023/01/06 02:03:48;;;;;;;6.80;3.13;;;;;;;;;;5116892;27;20048;-69
2023/01/06 02:06:18;;;;;;;6.75;2.38;;;;;;;;;;5113150;27;20070;-69
2023/01/06 02:08:50;;;;;;;5.75;2.33;;;;;;;;;;5106606;27;20051;-69
2023/01/06 02:11:16;;;;;;;7.07;2.30;;;;;;;;;;5097117;27;20063;-69
2023/01/06 02:13:46;;;;;;;9.95;3.40;;;;;;;;;;5102586;27;20058;-69
2023/01/06 02:16:12;;;;;;;4.68;2.40;;;;;;;;;;5122676;27;20055;-69
2023/01/06 02:18:50;;;;;;;4.53;2.50;;;;;;;;;;5108020;27;20409;-70
2023/01/06 02:21:17;;;;;;;2.92;2.05;;;;;;;;;;5120430;27;20139;-70
2023/01/06 02:23:49;;;;;;;5.75;2.70;;;;;;;;;;5107697;27;20048;-69
2023/01/06 02:26:28;;;;;;;5.03;2.47;;;;;;;;;;5116613;27;20059;-70
2023/01/06 02:29:23;;;;;;;6.40;2.60;;;;;;;;;;5121156;27;20113;-70
2023/01/06 02:31:59;;;;;;;3.53;1.70;;;;;;;;;;5109875;27;20110;-70
2023/01/06 02:34:31;;;;;;;5.50;2.42;;;;;;;;;;5112252;27;20089;-70
2023/01/06 02:37:06;;;;;;;3.88;2.40;;;;;;;;;;5121855;27;20047;-70
2023/01/06 02:39:42;;;;;;;14.50;2.75;;;;;;;;;;5115577;27;20048;-70
2023/01/06 02:42:11;;;;;;;5.22;2.05;;;;;;;;;;5122070;27;20052;-69
2023/01/06 02:44:45;;;;;;;3.58;2.00;;;;;;;;;;5112070;27;20538;-70
2023/01/06 02:47:12;;;;;;;5.13;2.60;;;;;;;;;;5120512;27;20134;-70
2023/01/06 02:49:44;;;;;;;3.58;2.33;;;;;;;;;;5119474;27;20063;-69
2023/01/06 02:52:17;;;;;;;5.18;2.28;;;;;;;;;;5119039;27;20055;-69
2023/01/06 02:55:03;;;;;;;5.72;2.58;;;;;;;;;;5117610;27;20524;-70
2023/01/06 02:57:39;;;;;;;4.65;1.92;;;;;;;;;;5078891;27;20043;-70
2023/01/06 03:00:09;;;;;;;5.72;1.60;;;;;;;;;;5121049;27;20043;-70
2023/01/06 03:02:37;;;;;;;6.00;1.98;;;;;;;;;;5103262;27;20056;-69
2023/01/06 03:05:04;;;;;;;3.28;2.00;;;;;;;;;;5108740;27;20135;-69
2023/01/06 03:07:31;;;;;;;7.70;1.90;;;;;;;;;;5114530;27;20141;-69
2023/01/06 03:09:59;;;;;;;6.30;2.15;;;;;;;;;;5091827;27;20051;-70
2023/01/06 03:12:42;;;;;;;3.20;1.38;;;;;;;;;;5120964;27;20051;-70
2023/01/06 03:15:09;;;;;;;4.60;2.13;;;;;;;;;;5120613;27;20048;-69
2023/01/06 03:17:35;;;;;;;3.85;1.90;;;;;;;;;;5118376;27;20101;-69
2023/01/06 03:20:02;;;;;;;4.88;2.33;;;;;;;;;;5120611;27;20078;-70
2023/01/06 03:22:29;;;;;;;2.55;1.95;;;;;;;;;;5120374;27;20708;-70
2023/01/06 03:24:55;;;;;;;4.07;2.38;;;;;;;;;;5124589;27;20162;-70
2023/01/06 03:27:24;;;;;;;9.05;2.92;;;;;;;;;;5104379;27;20056;-70
2023/01/06 03:29:50;;;;;;;3.95;2.58;;;;;;;;;;5122047;27;20052;-69
2023/01/06 03:32:24;;;;;;;11.27;3.55;;;;;;;;;;5118306;27;20047;-69
2023/01/06 03:34:54;;;;;;;5.45;2.80;;;;;;;;;;5123695;27;20075;-70
2023/01/06 03:37:25;;;;;;;5.03;2.15;;;;;;;;;;5124720;27;20062;-69
2023/01/06 03:39:57;;;;;;;7.85;2.50;;;;;;;;;;5111390;27;20594;-69
2023/01/06 03:45:34;;;;;;;6.35;2.42;;;;;;;;;;5113151;27;20518;-70
2023/01/06 03:48:09;;;;;;;3.95;2.05;;;;;;;;;;5116284;27;20043;-70
2023/01/06 03:50:35;;;;;;;;;;;;;;;;;;5120362;27;20572;-71
2023/01/06 03:53:13;;;;;;;4.22;1.75;;;;;;;;;;5123537;27;45341;-70
2023/01/06 03:55:43;;;;;;;4.75;3.45;;;;;;;;;;5130356;27;20048;-72
2023/01/06 03:58:11;;;;;;;2.58;2.08;;;;;;;;;;5119889;27;20441;-70
2023/01/06 04:00:37;;;;;;;2.55;1.92;;;;;;;;;;5126578;27;20112;-70
2023/01/06 04:03:13;;;;;;;1.85;1.50;;;;;;;;;;5120611;27;20524;-70
2023/01/06 04:05:40;;;;;;;1.77;1.67;;;;;;;;;;5120525;27;20052;-70
2023/01/06 04:08:07;;;;;;;2.60;1.52;;;;;;;;;;5115628;27;20052;-70
2023/01/06 04:10:33;;;;;;;7.15;1.38;;;;;;;;;;5107455;27;20058;-71
2023/01/06 04:12:59;;;;;;;3.13;1.80;;;;;;;;;;5121806;27;20502;-70
2023/01/06 04:15:28;;;;;;;7.20;2.10;;;;;;;;;;5119005;27;20047;-69
2023/01/06 04:17:55;;;;;;;3.28;1.42;;;;;;;;;;5122214;27;20138;-70
2023/01/06 04:20:22;;;;;;;2.03;1.40;;;;;;;;;;5112558;27;20576;-70
2023/01/06 04:22:48;;;;;;;2.28;1.33;;;;;;;;;;5124555;27;20044;-69
2023/01/06 04:25:15;;;;;;;3.83;1.67;;;;;;;;;;5133982;27;20060;-69
2023/01/06 04:27:42;;;;;;;4.22;1.90;;;;;;;;;;5106981;27;20458;-70
2023/01/06 04:30:08;;;;;;;4.05;1.42;;;;;;;;;;5124586;27;20167;-69
2023/01/06 04:32:35;;;;;;;5.88;1.65;;;;;;;;;;5105248;27;20063;-70
2023/01/06 04:35:01;;;;;;;4.45;1.75;;;;;;;;;;5095275;27;20063;-69
2023/01/06 04:37:27;;;;;;;3.40;1.67;;;;;;;;;;5103524;27;20087;-70
2023/01/06 04:39:54;;;;;;;3.65;2.63;;;;;;;;;;5097198;27;20052;-70
2023/01/06 04:42:20;;;;;;;3.75;1.65;;;;;;;;;;5098438;28;20048;-70
2023/01/06 04:44:46;;;;;;;6.88;2.03;;;;;;;;;;5096749;28;20044;-69
2023/01/06 04:47:13;;;;;;;5.93;1.85;;;;;;;;;;5096421;27;20498;-71
2023/01/06 04:49:39;;;;;;;4.82;1.92;;;;;;;;;;5087870;28;20143;-70
2023/01/06 04:52:07;;;;;;;6.35;2.10;;;;;;;;;;5102355;27;20060;-71
2023/01/06 04:54:35;;;;;;;9.77;2.22;;;;;;;;;;5099557;27;20055;-70
2023/01/06 04:57:01;;;;;;;3.05;1.42;;;;;;;;;;5108732;27;20060;-69
2023/01/06 04:59:28;;;;;;;2.78;1.55;;;;;;;;;;5092008;27;20150;-70
2023/01/06 05:01:54;;;;;;;2.45;1.77;;;;;;;;;;5095160;27;20048;-69
2023/01/06 05:04:20;;;;;;;4.88;1.65;;;;;;;;;;5090076;28;20079;-69
2023/01/06 05:06:47;;;;;;;5.57;2.33;;;;;;;;;;5099976;27;20188;-69
2023/01/06 05:09:13;;;;;;;6.65;1.80;;;;;;;;;;5103113;28;20048;-69
2023/01/06 05:11:40;;;;;;;2.78;2.00;;;;;;;;;;5102697;28;20399;-69
2023/01/06 05:14:06;;;;;;;3.50;1.65;;;;;;;;;;5085096;27;20048;-69
2023/01/06 05:16:33;;;;;;;5.32;1.90;;;;;;;;;;5098775;28;20045;-70
2023/01/06 05:19:00;;;;;;;7.00;2.00;;;;;;;;;;5086240;28;20055;-70
2023/01/06 05:21:27;;;;;;;2.65;1.63;;;;;;;;;;5091991;28;20143;-69
2023/01/06 05:23:57;;;;;;;2.33;1.52;;;;;;;;;;5098046;27;20059;-69
2023/01/06 05:26:24;;;;;;;4.40;1.77;;;;;;;;;;5089410;28;20140;-69
2023/01/06 05:28:51;;;;;;;3.38;1.58;;;;;;;;;;5095092;28;20048;-69
2023/01/06 05:31:18;;;;;;;1.67;1.38;;;;;;;;;;5106161;27;20522;-70
2023/01/06 05:33:44;;;;;;;2.17;2.00;;;;;;;;;;5111797;27;20493;-70
2023/01/06 05:36:12;;;;;;;2.42;2.10;;;;;;;;;;5124530;27;20132;-69
2023/01/06 05:38:40;;;;;;;4.57;1.98;;;;;;;;;;5124553;27;20060;-70
2023/01/06 05:41:07;;;;;;;3.90;2.75;;;;;;;;;;5120904;27;20086;-70
2023/01/06 05:43:34;;;;;;;4.28;2.08;;;;;;;;;;5118883;27;20060;-69
2023/01/06 05:46:07;;;;;;;5.13;2.05;;;;;;;;;;5115501;27;20055;-69
2023/01/06 05:48:34;;;;;;;3.42;2.13;;;;;;;;;;5110185;27;20050;-70
2023/01/06 05:51:01;;;;;;;2.13;1.88;;;;;;;;;;5107224;27;20048;-69
2023/01/06 05:53:29;;;;;;;2.40;1.80;;;;;;;;;;5096815;27;20534;-70
2023/01/06 05:55:59;;;;;;;3.95;1.98;;;;;;;;;;5118902;27;20498;-69
2023/01/06 05:58:25;;;;;;;3.90;2.03;;;;;;;;;;5108941;27;20052;-70
2023/01/06 06:00:52;;;;;;;7.07;2.10;;;;;;;;;;5115870;27;20083;-71
2023/01/06 06:03:18;;;;;;;2.45;1.77;;;;;;;;;;5116034;27;20058;-69
2023/01/06 06:05:45;;;;;;;3.53;2.45;;;;;;;;;;5133121;27;20533;-68
2023/01/06 06:08:11;;;;;;;4.28;2.03;;;;;;;;;;5121725;27;20048;-69
2023/01/06 06:10:38;;;;;;;3.33;2.10;;;;;;;;;;5121332;27;20059;-70
2023/01/06 06:13:04;;;;;;;3.08;2.08;;;;;;;;;;5113933;27;20040;-69
2023/01/06 06:15:30;;;;;;;4.80;2.53;;;;;;;;;;5106988;27;20567;-70
2023/01/06 06:17:57;;;;;;;3.22;2.22;;;;;;;;;;5104391;27;20043;-69
2023/01/06 06:20:23;;;;;;;2.30;1.85;;;;;;;;;;5106744;27;20086;-70
2023/01/06 06:22:49;;;;;;;3.55;2.00;;;;;;;;;;5121100;27;20040;-70
2023/01/06 06:25:16;;;;;;;2.80;1.70;;;;;;;;;;5116650;27;20084;-69
2023/01/06 06:27:42;;;;;;;3.70;1.85;;;;;;;;;;5118973;27;20059;-70
2023/01/06 06:30:08;;;;;;;2.72;2.15;;;;;;;;;;5113310;27;20052;-71
2023/01/06 06:32:35;;;;;;;3.85;2.35;;;;;;;;;;5109161;27;20063;-69
2023/01/06 06:35:01;;;;;;;3.70;2.20;;;;;;;;;;5118377;27;20051;-69
2023/01/06 06:37:28;;;;;;;2.70;2.15;;;;;;;;;;5102785;27;20052;-70
2023/01/06 06:39:54;;;;;;;2.42;2.20;;;;;;;;;;5119326;27;20048;-70
2023/01/06 06:42:20;;;;;;;6.78;2.63;;;;;;;;;;5109529;27;20063;-69
2023/01/06 06:44:47;;;;;;;7.15;2.55;;;;;;;;;;5111478;27;20502;-70
2023/01/06 06:47:14;;;;;;;4.32;2.25;;;;;;;;;;5111072;27;20047;-69
2023/01/06 06:49:41;;;;;;;3.58;2.38;;;;;;;;;;5113626;27;20058;-69
2023/01/06 06:52:07;;;;;;;3.90;2.65;;;;;;;;;;5108618;27;20100;-72
2023/01/06 06:54:33;;;;;;;3.70;2.35;;;;;;;;;;5118841;27;20048;-74
2023/01/06 06:57:00;;;;;;;5.13;2.72;;;;;;;;;;5118028;27;20136;-70
2023/01/06 06:59:26;;;;;;;2.58;2.38;;;;;;;;;;5115263;27;20050;-72
2023/01/06 07:01:52;;;;;;;2.63;2.20;;;;;;;;;;5117230;27;20095;-72
2023/01/06 07:04:19;;;;;;;4.38;3.08;;;;;;;;;;5127582;27;20055;-70
2023/01/06 07:06:45;;;;;;;3.40;3.10;;;;;;;;;;5112142;27;20051;-72
2023/01/06 07:09:12;;;;;;;4.40;3.55;;;;;;;;;;5115401;27;20520;-74
2023/01/06 07:11:38;;;;;;;4.30;3.50;;;;;;;;;;5121604;27;20048;-70
2023/01/06 07:14:04;;;;;;;3.17;2.85;;;;;;;;;;5126441;27;20052;-72
2023/01/06 07:16:31;;;;;;;3.78;3.20;;;;;;;;;;5110930;27;20059;-70
2023/01/06 07:18:58;;;;;;;3.95;3.38;;;;;;;;;;5119724;27;20139;-72
2023/01/06 07:21:24;;;;;;;4.90;3.33;;;;;;;;;;5120945;27;20398;-73
2023/01/06 07:23:50;;;;;;;4.75;3.20;;;;;;;;;;5101226;27;20596;-73
2023/01/06 07:26:16;;;;;;;6.22;2.90;;;;;;;;;;5104906;27;20441;-71
2023/01/06 07:28:43;;;;;;;6.13;3.90;;;;;;;;;;5117450;27;20109;-69
2023/01/06 07:31:11;;;;;;;3.13;2.40;;;;;;;;;;5117330;27;20059;-72
2023/01/06 07:33:37;;;;;;;3.55;2.70;;;;;;;;;;5118283;27;20097;-72
2023/01/06 07:36:03;;;;;;;5.30;2.35;;;;;;;;;;5094422;28;20494;-72
2023/01/06 07:38:30;;;;;;;3.65;2.50;;;;;;;;;;5121293;27;20492;-72
2023/01/06 07:41:00;;;;;;;3.88;2.70;;;;;;;;;;5118917;27;20043;-71
2023/01/06 07:43:27;;;;;;;3.60;2.95;;;;;;;;;;5119435;27;20131;-72
2023/01/06 07:45:53;;;;;;;3.05;2.75;;;;;;;;;;5104753;27;20090;-72
2023/01/06 07:48:19;;;;;;;4.43;2.97;;;;;;;;;;5114478;27;20113;-74
2023/01/06 07:50:46;;;;;;;3.35;2.75;;;;;;;;;;5125420;27;20052;-69
2023/01/06 07:53:12;;;;;;;4.95;3.10;;;;;;;;;;5124721;27;20044;-72
2023/01/06 07:55:39;;;;;;;3.00;2.70;;;;;;;;;;5110394;27;20143;-72
2023/01/06 07:58:07;;;;;;;7.40;3.20;;;;;;;;;;5106023;27;20162;-73
2023/01/06 08:00:34;;;;;;;4.18;2.80;;;;;;;;;;5105963;27;20101;-74
2023/01/06 08:03:04;;;;;;;5.20;2.65;;;;;;;;;;5120114;27;20058;-73
2023/01/06 08:05:31;;;;;;;12.10;3.47;;;;;;;;;;5124626;27;20156;-72
2023/01/06 08:07:58;;;;;;;5.70;3.25;;;;;;;;;;5122521;27;20648;-73
2023/01/06 08:10:24;;;;;;;4.28;3.60;;;;;;;;;;5123910;27;20051;-74
2023/01/06 08:12:50;;;;;;;6.55;3.20;;;;;;;;;;5125444;27;20500;-74
2023/01/06 08:15:17;;;;;;;5.93;3.38;;;;;;;;;;5113788;27;20131;-71
2023/01/06 08:17:43;;;;;;;5.55;2.50;;;;;;;;;;5111943;27;20056;-72
2023/01/06 08:20:10;;;;;;;4.38;2.88;;;;;;;;;;5124848;27;20525;-75
2023/01/06 08:22:37;;;;;;;4.57;2.67;;;;;;;;;;5125233;27;20058;-73
2023/01/06 08:25:03;;;;;;;5.97;2.75;;;;;;;;;;5119498;27;20056;-73
2023/01/06 08:27:29;;;;;;;5.90;2.25;;;;;;;;;;5124220;27;20086;-71
2023/01/06 08:29:56;;;;;;;5.50;2.60;;;;;;;;;;5109908;27;20063;-72
2023/01/06 08:32:22;;;;;;;6.35;2.33;;;;;;;;;;5124676;27;20063;-72
2023/01/06 08:34:48;;;;;;;4.30;2.40;;;;;;;;;;5116197;27;20505;-71
2023/01/06 08:37:15;;;;;;;6.00;2.20;;;;;;;;;;5110705;27;20054;-70
2023/01/06 08:39:41;;;;;;;9.05;2.45;;;;;;;;;;5124530;27;20073;-73
2023/01/06 08:42:08;;;;;;;5.53;2.28;;;;;;;;;;5116968;27;20059;-69
2023/01/06 08:44:34;;;;;;;5.00;2.33;;;;;;;;;;5113536;27;20571;-73
2023/01/06 08:47:00;;;;;;;8.70;1.83;;;;;;;;;;5124829;27;20073;-73
2023/01/06 08:49:27;;;;;;;7.15;1.83;;;;;;;;;;5122354;27;20099;-72
2023/01/06 08:51:53;;;;;;;7.78;1.98;;;;;;;;;;5113992;27;20532;-71
2023/01/06 08:54:20;;;;;;;8.05;2.28;;;;;;;;;;5125063;27;20555;-72
2023/01/06 08:56:46;;;;;;;6.90;1.73;;;;;;;;;;5124208;27;20163;-69
2023/01/06 08:59:14;;;;;;;5.55;1.75;;;;;;;;;;5122886;27;20134;-70
2023/01/06 09:01:41;;;;;;;10.00;2.08;;;;;;;;;;5123649;27;20094;-69
2023/01/06 09:04:08;;;;;;;9.40;1.80;;;;;;;;;;5121908;27;20552;-72
2023/01/06 09:06:35;;;;;;;6.70;1.80;;;;;;;;;;5124541;27;20055;-73
2023/01/06 09:09:02;;;;;;;8.35;2.17;;;;;;;;;;5120373;27;20048;-72
2023/01/06 09:11:29;;;;;;;8.10;1.70;;;;;;;;;;5123872;27;20146;-72
2023/01/06 09:13:55;;;;;;;10.68;1.98;;;;;;;;;;5121624;27;21230;-71
2023/01/06 09:16:21;;;;;;;6.93;1.30;;;;;;;;;;5107234;27;20082;-72
2023/01/06 09:18:50;;;;;;;5.95;1.45;;;;;;;;;;5120958;27;20051;-72
2023/01/06 09:21:18;;;;;;;9.02;1.90;;;;;;;;;;5123781;27;20590;-70
2023/01/06 09:23:45;;;;;;;13.57;1.92;;;;;;;;;;5094060;27;20055;-71
2023/01/06 09:26:12;;;;;;;7.35;1.77;;;;;;;;;;5111232;27;20545;-71
2023/01/06 09:28:39;;;;;;;5.70;1.17;;;;;;;;;;5106012;27;20533;-70
2023/01/06 09:31:07;;;;;;;5.10;1.40;;;;;;;;;;5120158;27;20052;-73
2023/01/06 09:33:33;;;;;;;7.38;1.40;;;;;;;;;;5122420;27;20055;-71
2023/01/06 09:35:59;;;;;;;11.63;1.77;;;;;;;;;;5105195;27;20078;-73
2023/01/06 09:38:27;;;;;;;5.97;1.20;;;;;;;;;;5121265;27;20063;-71
2023/01/06 09:41:05;;;;;;;8.48;1.52;;;;;;;;;;5122244;27;20081;-72
2023/01/06 09:43:47;;;;;;;6.57;1.40;;;;;;;;;;5117538;27;20073;-72
2023/01/06 09:46:15;;;;;;;5.35;1.13;;;;;;;;;;5124189;27;20166;-72
2023/01/06 09:48:57;;;;;;;8.15;1.65;;;;;;;;;;5121590;27;20105;-72
2023/01/06 09:51:24;;;;;;;4.57;1.40;;;;;;;;;;5112679;27;20048;-71
2023/01/06 09:54:13;;;;;;;12.48;1.35;;;;;;;;;;5102805;27;20051;-71
2023/01/06 09:56:42;;;;;;;5.38;0.93;;;;;;;;;;5123112;27;20058;-73
2023/01/06 09:59:24;;;;;;;4.78;1.38;;;;;;;;;;5119983;27;20555;-73
2023/01/06 10:01:50;;;;;;;5.25;1.30;;;;;;;;;;5111840;27;20520;-71
2023/01/06 10:04:24;;;;;;;5.70;1.48;;;;;;;;;;5122984;27;20052;-72
2023/01/06 10:06:50;;;;;;;11.27;1.33;;;;;;;;;;5123875;27;20040;-72
2023/01/06 10:09:32;;;;;;;7.65;1.35;;;;;;;;;;5114929;27;20072;-70
2023/01/06 10:12:11;;;;;;;9.65;1.83;;;;;;;;;;5099661;27;20051;-71
2023/01/06 10:14:38;;;;;;;9.13;1.95;;;;;;;;;;5123107;27;20056;-71
2023/01/06 10:17:04;;;;;;;7.60;1.58;;;;;;;;;;5116975;27;20854;-71
2023/01/06 10:19:49;;;;;;;6.57;1.63;;;;;;;;;;5123505;27;20066;-72
2023/01/06 10:22:22;;;;;;;4.83;1.30;;;;;;;;;;5106295;27;20147;-71
2023/01/06 10:25:15;;;;;;;4.93;1.17;;;;;;;;;;5106434;27;20063;-72
2023/01/06 10:27:47;;;;;;;8.52;1.63;;;;;;;;;;5123683;27;20043;-70
2023/01/06 10:30:24;;;;;;;3.72;1.48;;;;;;;;;;5133428;27;20063;-72
2023/01/06 10:32:56;;;;;;;4.53;1.38;;;;;;;;;;5081862;28;20110;-72
2023/01/06 10:35:24;;;;;;;5.95;1.33;;;;;;;;;;5078949;28;20513;-72
2023/01/06 10:37:51;;;;;;;4.60;1.77;;;;;;;;;;5074374;28;20052;-71
2023/01/06 10:40:17;;;;;;;9.85;1.85;;;;;;;;;;5081622;28;20517;-71
2023/01/06 10:42:56;;;;;;;5.55;1.33;;;;;;;;;;5083278;28;20063;-70
2023/01/06 10:45:28;;;;;;;9.50;2.17;;;;;;;;;;5077704;28;20532;-70
2023/01/06 10:47:55;;;;;;;5.70;1.30;;;;;;;;;;5082099;28;20072;-70
2023/01/06 10:50:21;;;;;;;6.75;1.42;;;;;;;;;;5070391;28;20048;-71
2023/01/06 10:52:48;;;;;;;6.00;1.30;;;;;;;;;;5071353;28;20513;-70
2023/01/06 10:55:27;;;;;;;6.63;1.70;;;;;;;;;;5075134;28;20040;-70
2023/01/06 10:57:57;;;;;;;8.50;1.30;;;;;;;;;;5089033;28;20060;-72
2023/01/06 11:00:23;;;;;;;4.15;0.93;;;;;;;;;;5073141;28;20053;-71
2023/01/06 11:02:51;;;;;;;2.95;1.13;;;;;;;;;;5071278;28;20095;-70
2023/01/06 11:05:19;;;;;;;7.22;1.63;;;;;;;;;;5078719;28;20513;-71
2023/01/06 11:07:48;;;;;;;6.40;0.95;;;;;;;;;;5071568;28;20050;-70
2023/01/06 11:10:23;;;;;;;8.48;1.40;;;;;;;;;;5081667;28;20052;-72
2023/01/06 11:12:49;;;;;;;4.97;1.50;;;;;;;;;;5084253;28;20052;-72
2023/01/06 11:15:20;;;;;;;5.75;1.63;;;;;;;;;;5080605;28;20048;-71
2023/01/06 11:17:47;;;;;;;4.78;1.23;;;;;;;;;;5080563;28;20139;-71
2023/01/06 11:20:16;;;;;;;8.02;1.13;;;;;;;;;;5077071;28;20056;-72
2023/01/06 11:22:43;;;;;;;8.00;1.65;;;;;;;;;;5078744;28;20995;-71
2023/01/06 11:25:19;;;;;;;4.20;1.08;;;;;;;;;;5071341;28;20048;-71
2023/01/06 11:27:46;;;;;;;;;;;;;;;;;;5079170;28;20052;-69
2023/01/06 11:30:24;;;;;;;7.97;1.20;;;;;;;;;;5075403;28;43631;-71
2023/01/06 11:32:51;;;;;;;5.43;0.98;;;;;;;;;;5074255;28;20049;-70
2023/01/06 11:35:18;;;;;;;5.15;1.00;;;;;;;;;;5062317;28;20060;-72
2023/01/06 11:37:45;;;;;;;7.70;1.35;;;;;;;;;;5063646;28;20056;-71
2023/01/06 11:40:23;;;;;;;2.15;0.70;;;;;;;;;;5077260;28;20060;-71
2023/01/06 11:42:51;;;;;;;4.45;0.98;;;;;;;;;;5076783;28;20048;-72
2023/01/06 11:45:35;;;;;;;2.90;0.80;;;;;;;;;;5069245;28;20088;-71
2023/01/06 11:48:04;;;;;;;4.97;0.90;;;;;;;;;;5083529;28;20103;-71
2023/01/06 11:50:30;;;;;;;6.45;1.13;;;;;;;;;;5084019;28;20056;-72
2023/01/06 11:53:01;;;;;;;7.32;1.20;;;;;;;;;;5083662;28;20055;-72
2023/01/06 11:55:27;;;;;;;4.35;0.95;;;;;;;;;;5084540;28;20438;-73
2023/01/06 11:57:57;;;;;;;7.35;1.13;;;;;;;;;;5083962;28;20052;-72
2023/01/06 12:00:32;;;;;;;4.40;1.20;;;;;;;;;;5068572;28;20479;-72
2023/01/06 12:03:16;;;;;;;11.40;1.90;;;;;;;;;;5070491;28;20048;-72
2023/01/06 12:05:46;;;;;;;5.68;1.50;;;;;;;;;;5083544;28;20053;-71
2023/01/06 12:08:18;;;;;;;6.25;1.10;;;;;;;;;;5073321;28;20527;-71
2023/01/06 12:10:47;;;;;;;5.68;1.27;;;;;;;;;;5079421;28;20135;-69
2023/01/06 12:13:13;;;;;;;6.00;1.65;;;;;;;;;;5094734;27;20056;-71
2023/01/06 12:15:41;;;;;;;6.28;1.20;;;;;;;;;;5073265;28;20060;-71
2023/01/06 12:18:14;;;;;;;4.65;1.35;;;;;;;;;;5078753;28;20060;-71
2023/01/06 12:20:43;;;;;;;2.63;0.90;;;;;;;;;;5084391;28;20060;-70
2023/01/06 12:23:35;;;;;;;8.32;1.30;;;;;;;;;;5073618;28;20559;-70
2023/01/06 12:26:04;;;;;;;5.05;1.33;;;;;;;;;;5079315;28;20407;-70
2023/01/06 12:28:33;;;;;;;9.60;2.17;;;;;;;;;;5083311;28;20589;-70
2023/01/06 12:30:59;;;;;;;5.40;1.60;;;;;;;;;;5075681;28;20480;-70
2023/01/06 12:33:26;;;;;;;5.93;1.00;;;;;;;;;;5117880;27;20054;-71
2023/01/06 12:35:54;;;;;;;6.63;1.80;;;;;;;;;;5124638;27;20656;-70
2023/01/06 12:38:21;;;;;;;4.10;1.02;;;;;;;;;;5122734;27;20052;-70
2023/01/06 12:40:51;;;;;;;3.10;1.00;;;;;;;;;;5122497;27;20058;-70
2023/01/06 12:43:18;;;;;;;2.78;0.75;;;;;;;;;;5117969;27;20052;-69
2023/01/06 12:45:55;;;;;;;7.07;1.65;;;;;;;;;;5118882;27;20058;-70
2023/01/06 12:48:23;;;;;;;5.40;1.20;;;;;;;;;;5121775;27;20050;-71
2023/01/06 12:50:55;;;;;;;6.78;1.05;;;;;;;;;;5120144;27;20096;-73
2023/01/06 12:53:27;;;;;;;5.35;1.40;;;;;;;;;;5122698;27;20569;-71
2023/01/06 12:56:02;;;;;;;4.05;0.80;;;;;;;;;;5123428;27;20109;-73
2023/01/06 12:58:31;;;;;;;1.25;0.98;;;;;;;;;;5128747;27;20162;-71
2023/01/06 13:01:01;;;;;;;3.63;1.17;;;;;;;;;;5123998;27;20131;-72
2023/01/06 13:03:54;;;;;;;4.50;1.02;;;;;;;;;;5109581;27;20062;-71
2023/01/06 13:06:29;;;;;;;4.45;1.73;;;;;;;;;;5087197;27;20054;-71
2023/01/06 13:09:07;;;;;;;4.10;1.35;;;;;;;;;;5115999;27;20051;-70
2023/01/06 13:11:54;;;;;;;1.58;0.98;;;;;;;;;;5121867;27;20498;-70
2023/01/06 13:14:36;;;;;;;3.08;1.00;;;;;;;;;;5126319;27;20146;-69
2023/01/06 13:17:08;;;;;;;7.85;1.02;;;;;;;;;;5112333;27;20051;-72
2023/01/06 13:19:43;;;;;;;2.90;0.70;;;;;;;;;;5114532;27;20048;-72
2023/01/06 13:22:13;;;;;;;3.55;1.08;;;;;;;;;;5117167;27;20113;-72
2023/01/06 13:24:48;;;;;;;1.48;0.70;;;;;;;;;;5118979;27;20507;-70
2023/01/06 13:27:15;;;;;;;;;;;;;;;;;;5114504;27;20067;-69
2023/01/06 13:29:41;;;;;;;;;;;;;;;;;;5121269;27;46782;-69
2023/01/06 13:32:32;;;;;;;4.47;1.25;;;;;;;;;;5113237;27;47233;-71
2023/01/06 13:35:01;;;;;;;4.25;0.60;;;;;;;;;;5121197;27;20493;-71
2023/01/06 13:37:35;;;;;;;7.82;1.08;;;;;;;;;;5105948;27;20051;-70
2023/01/06 13:40:06;;;;;;;4.15;1.20;;;;;;;;;;5127452;27;20422;-71
2023/01/06 13:42:53;;;;;;;4.60;1.02;;;;;;;;;;5110805;27;20494;-71
2023/01/06 13:45:29;;;;;;;6.57;1.63;;;;;;;;;;5114141;27;20101;-71
2023/01/06 13:47:56;;;;;;;3.28;0.80;;;;;;;;;;5117708;27;20448;-69
2023/01/06 13:50:23;;;;;;;3.35;0.73;;;;;;;;;;5123569;27;20090;-69
2023/01/06 13:52:50;;;;;;;6.50;1.20;;;;;;;;;;5123649;27;20104;-70
2023/01/06 13:55:21;;;;;;;5.57;1.00;;;;;;;;;;5115701;27;22334;-70
2023/01/06 13:57:47;;;;;;;7.82;0.88;;;;;;;;;;5112940;27;20101;-70
2023/01/06 14:00:15;;;;;;;10.10;1.40;;;;;;;;;;5137831;27;20981;-70
2023/01/06 14:02:45;;;;;;;3.70;0.80;;;;;;;;;;5105412;27;20062;-70
2023/01/06 14:05:20;;;;;;;5.03;1.17;;;;;;;;;;5106614;27;20105;-70
2023/01/06 14:07:52;;;;;;;7.68;1.48;;;;;;;;;;5118006;27;20139;-70
2023/01/06 14:10:32;;;;;;;7.53;1.02;;;;;;;;;;5117582;27;20529;-69
2023/01/06 14:13:00;;;;;;;5.38;1.30;;;;;;;;;;5113603;27;20324;-70
2023/01/06 14:15:28;;;;;;;5.53;1.20;;;;;;;;;;5106260;27;20091;-70
2023/01/06 14:17:55;;;;;;;2.97;0.98;;;;;;;;;;5121916;27;20051;-71
2023/01/06 14:20:24;;;;;;;5.50;1.30;;;;;;;;;;5127589;27;20048;-70
2023/01/06 14:22:58;;;;;;;3.75;1.25;;;;;;;;;;5121843;27;20979;-70
2023/01/06 14:25:25;;;;;;;6.15;1.08;;;;;;;;;;5109251;27;20117;-71
2023/01/06 14:27:52;;;;;;;5.13;1.00;;;;;;;;;;5123333;27;20043;-70
2023/01/06 14:30:20;;;;;;;3.35;1.23;;;;;;;;;;5122662;27;20484;-70
2023/01/06 14:32:46;;;;;;;2.63;1.05;;;;;;;;;;5119456;27;20599;-70
2023/01/06 14:35:15;;;;;;;4.97;1.60;;;;;;;;;;5133291;27;20107;-70
2023/01/06 14:37:46;;;;;;;9.65;1.30;;;;;;;;;;5122824;27;20052;-70
2023/01/06 14:40:21;;;;;;;2.65;0.93;;;;;;;;;;5122256;27;20152;-70
2023/01/06 14:42:49;;;;;;;3.72;1.13;;;;;;;;;;5116392;27;20444;-70
2023/01/06 14:45:17;;;;;;;6.82;0.88;;;;;;;;;;5121653;27;20040;-69
2023/01/06 14:47:46;;;;;;;3.35;0.82;;;;;;;;;;5119485;27;20064;-69
2023/01/06 14:50:15;;;;;;;6.88;0.80;;;;;;;;;;5111528;27;20052;-69
2023/01/06 14:52:45;;;;;;;4.63;0.70;;;;;;;;;;5121980;27;20145;-69
2023/01/06 14:55:15;;;;;;;3.10;0.93;;;;;;;;;;5121792;27;20054;-70
2023/01/06 14:57:41;;;;;;;2.20;0.68;;;;;;;;;;5113115;27;20101;-70
2023/01/06 15:00:22;;;;;;;4.40;0.75;;;;;;;;;;5118006;27;20117;-70